CheckWX is a tool to help pilots better visualize weather data.  It is not intended as a substitute for an official pre-flight weather briefing.

08:24:02 UTC

LIMJ METAR
Genoa Cristoforo Colombo Airport
Genova, Italy
Current

34 mins ago

LIMJ 150750Z 03007KT 360V060 CAVOK 25/16 Q1024
Observed
Sep-15 @ 07:50 UTC
Wind
  • 030° at 7 KTS
Visibility
10,000+ meters
Flight Rules
VFR
Cloud Levels
  • Clear skies
Temperature
25°C / 77°F
Dewpoint
16°C / 61°F
Humidity
57%
Altimeter
30.24" Hg
Pressure
1023.92 hPa
Previous

1 hour ago

LIMJ 150720Z 34004KT 260V050 CAVOK 25/16 Q1024
Observed
Sep-15 @ 07:20 UTC
Wind
  • 340° at 4 KTS
Visibility
10,000+ meters
Flight Rules
VFR
Cloud Levels
  • Clear skies
Temperature
25°C / 77°F
Dewpoint
16°C / 61°F
Humidity
57%
Altimeter
30.24" Hg
Pressure
1023.92 hPa
Previous

2 hours ago

LIMJ 150650Z 02007KT 330V060 CAVOK 24/16 Q1024
Observed
Sep-15 @ 06:50 UTC
Wind
  • 020° at 7 KTS
Visibility
10,000+ meters
Flight Rules
VFR
Cloud Levels
  • Clear skies
Temperature
24°C / 75°F
Dewpoint
16°C / 61°F
Humidity
61%
Altimeter
30.24" Hg
Pressure
1023.92 hPa